createdAt,value
2022-12-03T00:00:11.925Z,85.76
2022-12-03T00:02:39.536Z,85.38
2022-12-03T00:05:06.512Z,84.80
2022-12-03T00:07:33.180Z,85.42
2022-12-03T00:09:59.786Z,85.31
2022-12-03T00:12:26.309Z,85.34
2022-12-03T00:14:52.976Z,85.81
2022-12-03T00:17:19.600Z,85.47
2022-12-03T00:19:46.263Z,86.13
2022-12-03T00:22:13.681Z,85.34
2022-12-03T00:24:40.230Z,85.13
2022-12-03T00:27:06.768Z,85.39
2022-12-03T00:29:33.339Z,85.42
2022-12-03T00:31:59.857Z,86.38
2022-12-03T00:34:26.418Z,85.85
2022-12-03T00:36:52.950Z,86.49
2022-12-03T00:39:19.498Z,86.14
2022-12-03T00:41:46.055Z,86.76
2022-12-03T00:44:12.554Z,86.74
2022-12-03T00:46:39.463Z,86.54
2022-12-03T00:49:06.022Z,85.91
2022-12-03T00:51:34.909Z,86.52
2022-12-03T00:54:01.719Z,86.50
2022-12-03T00:56:28.285Z,86.94
2022-12-03T00:58:54.808Z,86.99
2022-12-03T01:01:21.450Z,87.11
2022-12-03T01:03:48.002Z,87.51
2022-12-03T01:06:14.502Z,87.07
2022-12-03T01:08:40.966Z,87.40
2022-12-03T01:11:07.496Z,87.59
2022-12-03T01:13:34.015Z,86.96
2022-12-03T01:16:00.643Z,87.13
2022-12-03T01:18:27.219Z,87.43
2022-12-03T01:20:53.841Z,87.00
2022-12-03T01:23:20.381Z,86.73
2022-12-03T01:25:46.950Z,87.06
2022-12-03T01:28:13.461Z,86.84
2022-12-03T01:30:40.011Z,87.21
2022-12-03T01:33:06.491Z,87.21
2022-12-03T01:35:33.028Z,87.22
2022-12-03T01:37:59.525Z,87.53
2022-12-03T01:40:26.051Z,87.38
2022-12-03T01:42:52.548Z,87.89
2022-12-03T01:45:23.624Z,87.90
2022-12-03T01:47:50.169Z,87.90
2022-12-03T01:50:22.911Z,87.28
2022-12-03T01:52:49.573Z,87.46
2022-12-03T01:55:21.831Z,87.46
2022-12-03T01:57:54.624Z,87.52
2022-12-03T02:00:24.418Z,87.68
2022-12-03T02:03:00.304Z,87.46
2022-12-03T02:05:30.057Z,86.93
2022-12-03T02:07:57.900Z,87.30
2022-12-03T02:10:34.200Z,87.86
2022-12-03T02:13:09.067Z,87.58
2022-12-03T02:15:38.210Z,87.60
2022-12-03T02:18:04.978Z,87.83
2022-12-03T02:20:35.854Z,87.73
2022-12-03T02:23:02.299Z,87.83
2022-12-03T02:25:32.187Z,88.07
2022-12-03T02:28:00.503Z,86.86
2022-12-03T02:30:29.611Z,86.56
2022-12-03T02:32:57.502Z,86.82
2022-12-03T02:35:35.802Z,87.57
2022-12-03T02:38:19.861Z,87.15
2022-12-03T02:40:49.302Z,87.16
2022-12-03T02:43:17.179Z,86.00
2022-12-03T02:45:46.632Z,85.60
2022-12-03T02:48:19.896Z,85.61
2022-12-03T02:50:52.637Z,85.01
2022-12-03T02:53:22.069Z,84.64
2022-12-03T02:55:50.338Z,83.49
2022-12-03T02:58:17.940Z,82.33
2022-12-03T03:00:45.859Z,82.80
2022-12-03T03:03:13.121Z,82.11
2022-12-03T03:05:40.603Z,82.02
2022-12-03T03:08:08.826Z,81.52
2022-12-03T03:10:39.678Z,81.22
2022-12-03T03:13:10.688Z,81.09
2022-12-03T03:15:39.301Z,80.55
2022-12-03T03:18:11.010Z,80.67
2022-12-03T03:20:38.708Z,80.43
2022-12-03T03:23:19.971Z,81.08
2022-12-03T03:26:11.336Z,81.11
2022-12-03T03:28:44.860Z,81.12
2022-12-03T03:31:14.040Z,81.05
2022-12-03T03:33:43.612Z,80.75
2022-12-03T03:36:10.742Z,80.51
2022-12-03T03:38:38.107Z,81.25
2022-12-03T03:41:06.215Z,81.33
2022-12-03T03:43:34.690Z,81.78
2022-12-03T03:46:03.718Z,81.54
2022-12-03T03:48:30.694Z,82.00
2022-12-03T03:50:57.458Z,81.66
2022-12-03T03:53:24.507Z,82.37
2022-12-03T03:55:51.359Z,82.25
2022-12-03T03:58:17.946Z,82.33
2022-12-03T04:00:45.327Z,82.60
2022-12-03T04:03:12.624Z,82.33
2022-12-03T04:05:39.868Z,81.62
2022-12-03T04:08:06.448Z,82.71
2022-12-03T04:10:33.028Z,81.78
2022-12-03T04:13:00.104Z,82.66
2022-12-03T04:15:27.306Z,82.00
2022-12-03T04:17:54.031Z,82.65
2022-12-03T04:20:20.588Z,82.02
2022-12-03T04:22:47.122Z,82.73
2022-12-03T04:25:13.676Z,82.59
2022-12-03T04:27:40.174Z,83.58
2022-12-03T04:30:07.262Z,83.21
2022-12-03T04:32:33.733Z,82.85
2022-12-03T04:35:00.269Z,83.39
2022-12-03T04:37:26.755Z,83.45
2022-12-03T04:39:53.284Z,83.32
2022-12-03T04:42:19.825Z,82.92
2022-12-03T04:44:46.343Z,84.00
2022-12-03T04:47:16.182Z,83.93
2022-12-03T04:49:47.421Z,83.48
2022-12-03T04:52:16.525Z,83.88
2022-12-03T04:54:43.310Z,83.66
2022-12-03T04:57:10.885Z,83.66
2022-12-03T04:59:38.448Z,83.54
2022-12-03T05:02:06.556Z,83.33
2022-12-03T05:04:33.820Z,83.40
2022-12-03T05:07:00.349Z,83.17
2022-12-03T05:09:26.861Z,83.42
2022-12-03T05:11:53.492Z,83.45
2022-12-03T05:14:20.022Z,83.80
2022-12-03T05:16:46.617Z,84.58
2022-12-03T05:19:13.136Z,84.21
2022-12-03T05:21:39.701Z,83.90
2022-12-03T05:24:06.442Z,83.54
2022-12-03T05:26:33.077Z,84.02
2022-12-03T05:29:01.177Z,83.74
2022-12-03T05:31:27.868Z,84.57
2022-12-03T05:33:54.382Z,83.86
2022-12-03T05:36:20.912Z,84.19
2022-12-03T05:38:47.444Z,84.00
2022-12-03T05:41:13.968Z,83.78
2022-12-03T05:43:40.472Z,84.36
2022-12-03T05:46:07.044Z,83.84
2022-12-03T05:48:33.590Z,84.05
2022-12-03T05:51:00.131Z,83.73
2022-12-03T05:53:26.649Z,83.99
2022-12-03T05:55:53.171Z,83.82
2022-12-03T05:58:19.668Z,84.36
2022-12-03T06:00:46.151Z,84.03
2022-12-03T06:03:12.702Z,83.98
2022-12-03T06:05:39.286Z,84.58
2022-12-03T06:08:05.907Z,84.91
2022-12-03T06:10:32.531Z,84.39
2022-12-03T06:12:58.987Z,85.24
2022-12-03T06:15:25.532Z,84.60
2022-12-03T06:17:52.077Z,84.89
2022-12-03T06:20:20.341Z,84.72
2022-12-03T06:23:01.925Z,84.96
2022-12-03T06:25:28.424Z,84.99
2022-12-03T06:27:54.904Z,84.64
2022-12-03T06:30:21.483Z,84.78
2022-12-03T06:32:48.005Z,84.90
2022-12-03T06:35:14.668Z,84.81
2022-12-03T06:37:41.161Z,85.11
2022-12-03T06:40:08.369Z,85.10
2022-12-03T06:42:34.828Z,84.27
2022-12-03T06:45:01.364Z,85.49
2022-12-03T06:47:29.627Z,84.97
2022-12-03T06:49:56.172Z,84.63
2022-12-03T06:52:22.668Z,84.88
2022-12-03T06:54:49.360Z,84.23
2022-12-03T06:57:15.860Z,84.30
2022-12-03T06:59:42.415Z,84.15
2022-12-03T07:02:10.302Z,84.13
2022-12-03T07:04:36.845Z,84.58
2022-12-03T07:07:03.395Z,85.01
2022-12-03T07:09:29.939Z,84.77
2022-12-03T07:11:57.086Z,85.67
2022-12-03T07:14:23.707Z,84.54
2022-12-03T07:16:50.220Z,84.62
2022-12-03T07:19:16.794Z,84.29
2022-12-03T07:21:43.321Z,84.67
2022-12-03T07:24:10.140Z,84.63
2022-12-03T07:26:36.676Z,85.84
2022-12-03T07:29:03.412Z,85.67
2022-12-03T07:31:30.012Z,85.41
2022-12-03T07:33:56.573Z,85.83
2022-12-03T07:36:23.382Z,85.24
2022-12-03T07:38:49.919Z,86.38
2022-12-03T07:41:16.534Z,86.46
2022-12-03T07:43:43.114Z,85.83
2022-12-03T07:46:09.718Z,86.06
2022-12-03T07:48:36.355Z,85.78
2022-12-03T07:51:03.005Z,85.66
2022-12-03T07:53:29.521Z,86.66
2022-12-03T07:55:56.003Z,85.43
2022-12-03T07:58:22.541Z,86.23
2022-12-03T08:00:49.274Z,86.30
2022-12-03T08:03:15.878Z,86.60
2022-12-03T08:05:42.380Z,86.79
2022-12-03T08:08:09.049Z,86.07
2022-12-03T08:10:35.643Z,86.44
2022-12-03T08:13:06.617Z,85.68
2022-12-03T08:15:39.099Z,86.75
2022-12-03T08:18:32.731Z,86.16
2022-12-03T08:20:59.313Z,86.71
2022-12-03T08:23:26.473Z,86.29
2022-12-03T08:25:53.135Z,86.18
2022-12-03T08:28:27.026Z,86.59
2022-12-03T08:31:09.736Z,86.61
2022-12-03T08:33:37.246Z,87.31
2022-12-03T08:36:25.253Z,86.26
2022-12-03T08:38:55.779Z,86.37
2022-12-03T08:41:22.884Z,87.18
2022-12-03T08:43:49.571Z,87.15
2022-12-03T08:46:19.033Z,87.20
2022-12-03T08:48:49.117Z,86.86
2022-12-03T08:51:22.573Z,86.60
2022-12-03T08:54:01.816Z,87.46
2022-12-03T08:56:30.833Z,87.27
2022-12-03T08:59:16.775Z,87.16
2022-12-03T09:01:45.734Z,86.47
2022-12-03T09:04:27.666Z,86.39
2022-12-03T09:06:55.020Z,87.24
2022-12-03T09:09:22.358Z,87.25
2022-12-03T09:11:49.789Z,87.37
2022-12-03T09:14:18.732Z,87.64
2022-12-03T09:16:46.012Z,87.43
2022-12-03T09:19:12.791Z,87.98
2022-12-03T09:21:39.375Z,87.41
2022-12-03T09:24:06.495Z,88.27
2022-12-03T09:26:33.059Z,88.31
2022-12-03T09:28:59.660Z,87.79
2022-12-03T09:31:26.320Z,88.17
2022-12-03T09:33:52.909Z,88.07
2022-12-03T09:36:19.463Z,88.33
2022-12-03T09:38:48.065Z,88.45
2022-12-03T09:41:14.944Z,89.12
2022-12-03T09:46:29.808Z,89.38
2022-12-03T09:48:56.490Z,89.01
2022-12-03T09:51:32.578Z,89.02
2022-12-03T09:54:01.401Z,89.13
2022-12-03T09:56:27.971Z,89.24
2022-12-03T09:58:54.688Z,88.75
2022-12-03T10:01:21.876Z,88.32
2022-12-03T10:03:51.106Z,88.98
2022-12-03T10:06:23.464Z,89.09
2022-12-03T10:08:54.621Z,89.14
2022-12-03T10:11:24.393Z,89.30
2022-12-03T10:13:54.035Z,89.34
2022-12-03T10:16:21.529Z,88.65
2022-12-03T10:18:54.260Z,88.58
2022-12-03T10:21:30.513Z,88.94
2022-12-03T10:24:20.458Z,88.84
2022-12-03T10:26:48.817Z,88.90
2022-12-03T10:29:23.178Z,88.87
2022-12-03T10:32:00.183Z,89.42
2022-12-03T10:34:31.993Z,89.11
2022-12-03T10:37:25.081Z,89.21
2022-12-03T10:40:13.092Z,88.99
2022-12-03T10:42:41.066Z,88.72
2022-12-03T10:45:16.833Z,88.74
2022-12-03T10:48:01.612Z,89.26
2022-12-03T10:50:29.089Z,88.82
2022-12-03T10:52:55.896Z,88.71
2022-12-03T10:55:22.560Z,88.34
2022-12-03T10:57:49.166Z,88.56
2022-12-03T11:00:18.464Z,88.72
2022-12-03T11:02:50.417Z,88.49
2022-12-03T11:05:25.581Z,88.31
2022-12-03T11:07:52.551Z,88.42
2022-12-03T11:10:19.634Z,88.43
2022-12-03T11:13:24.181Z,88.55
2022-12-03T11:15:50.905Z,88.50
2022-12-03T11:18:36.054Z,88.21
2022-12-03T11:21:04.878Z,88.16
2022-12-03T11:23:47.035Z,87.97
2022-12-03T11:26:38.251Z,88.14
2022-12-03T11:29:13.791Z,88.10
2022-12-03T11:31:48.122Z,87.79
2022-12-03T11:34:20.943Z,87.72
2022-12-03T11:37:09.572Z,86.89
2022-12-03T11:39:45.652Z,86.48
2022-12-03T11:42:22.591Z,86.44
2022-12-03T11:45:04.478Z,86.58
2022-12-03T11:47:36.967Z,85.95
2022-12-03T11:50:21.373Z,85.37
2022-12-03T11:53:12.888Z,84.93
2022-12-03T11:55:42.811Z,85.33
2022-12-03T11:58:26.271Z,84.34
2022-12-03T12:01:00.976Z,84.11
2022-12-03T12:03:29.342Z,84.30
2022-12-03T12:06:12.690Z,83.53
2022-12-03T12:08:54.688Z,83.69
2022-12-03T12:11:30.412Z,83.25
2022-12-03T12:14:02.083Z,82.60
2022-12-03T12:16:40.977Z,82.36
2022-12-03T12:19:42.530Z,82.28
2022-12-03T12:22:29.717Z,82.14
2022-12-03T12:24:57.415Z,82.76
2022-12-03T12:27:40.293Z,81.97
2022-12-03T12:30:14.862Z,81.75
2022-12-03T12:32:49.129Z,82.45
2022-12-03T12:35:23.145Z,81.49
2022-12-03T12:37:56.628Z,81.48
2022-12-03T12:40:31.614Z,80.80
2022-12-03T12:43:04.187Z,79.73
2022-12-03T12:45:36.875Z,79.23
2022-12-03T12:48:30.939Z,78.93
2022-12-03T12:51:14.823Z,79.40
2022-12-03T12:53:41.680Z,79.50
2022-12-03T12:56:37.792Z,78.75
2022-12-03T12:59:19.748Z,79.00
2022-12-03T13:01:48.248Z,78.59
2022-12-03T13:04:23.288Z,78.82
2022-12-03T13:06:52.812Z,79.26
2022-12-03T13:09:21.921Z,79.05
2022-12-03T13:11:53.533Z,79.25
2022-12-03T13:14:24.160Z,78.91
2022-12-03T13:16:53.447Z,79.01
2022-12-03T13:19:24.530Z,79.16
2022-12-03T13:21:55.707Z,79.23
2022-12-03T13:24:45.743Z,79.00
2022-12-03T13:27:18.562Z,79.23
2022-12-03T13:29:53.266Z,78.81
2022-12-03T13:32:23.430Z,78.92
2022-12-03T13:34:50.013Z,79.29
2022-12-03T13:37:20.903Z,79.00
2022-12-03T13:39:50.096Z,79.00
2022-12-03T13:42:22.568Z,78.81
2022-12-03T13:44:49.925Z,79.54
2022-12-03T13:47:20.672Z,78.97
2022-12-03T13:49:52.392Z,78.95
2022-12-03T13:52:21.998Z,78.84
2022-12-03T13:54:51.336Z,78.46
2022-12-03T13:57:18.115Z,78.22
2022-12-03T13:59:44.844Z,77.96
2022-12-03T14:02:11.416Z,77.96
2022-12-03T14:04:38.488Z,78.24
2022-12-03T14:07:05.773Z,77.91
2022-12-03T14:09:32.484Z,78.41
2022-12-03T14:11:59.027Z,78.40
2022-12-03T14:14:25.554Z,78.00
2022-12-03T14:16:59.526Z,78.73
2022-12-03T14:19:26.922Z,78.50
2022-12-03T14:21:53.603Z,78.38
2022-12-03T14:24:20.280Z,78.53
2022-12-03T14:26:46.851Z,78.53
2022-12-03T14:29:13.441Z,78.73
2022-12-03T14:31:49.775Z,79.10
2022-12-03T14:34:17.646Z,79.15
2022-12-03T14:36:44.431Z,79.55
2022-12-03T14:39:11.072Z,79.10
2022-12-03T14:41:37.656Z,79.09
2022-12-03T14:44:04.386Z,79.60
2022-12-03T14:46:32.885Z,79.39
2022-12-03T14:48:59.481Z,78.33
2022-12-03T14:51:26.189Z,78.11
2022-12-03T14:53:52.816Z,77.28
2022-12-03T14:56:19.701Z,76.72
2022-12-03T14:58:46.223Z,76.50
2022-12-03T15:01:12.778Z,76.60
2022-12-03T15:03:39.499Z,76.42
2022-12-03T15:06:06.372Z,76.67
2022-12-03T15:08:33.010Z,76.96
2022-12-03T15:10:59.643Z,76.31
2022-12-03T15:13:26.229Z,76.82
2022-12-03T15:15:52.748Z,77.13
2022-12-03T15:18:19.405Z,76.69
2022-12-03T15:20:46.147Z,77.20
2022-12-03T15:23:14.443Z,77.10
2022-12-03T15:25:41.353Z,77.41
2022-12-03T15:28:07.920Z,77.48
2022-12-03T15:30:34.463Z,77.70
2022-12-03T15:33:01.983Z,77.65
2022-12-03T15:35:31.676Z,78.13
2022-12-03T15:37:59.121Z,77.96
2022-12-03T15:40:26.391Z,78.07
2022-12-03T15:42:52.955Z,78.73
2022-12-03T15:45:19.641Z,78.52
2022-12-03T15:47:46.234Z,79.31
2022-12-03T15:50:13.061Z,79.44
2022-12-03T15:52:40.106Z,79.01
2022-12-03T15:55:07.054Z,79.74
2022-12-03T15:57:33.606Z,79.12
2022-12-03T16:00:02.615Z,79.69
2022-12-03T16:02:39.041Z,79.33
2022-12-03T16:05:08.541Z,80.11
2022-12-03T16:07:35.383Z,80.23
2022-12-03T16:10:02.174Z,80.39
2022-12-03T16:12:28.922Z,80.19
2022-12-03T16:14:55.492Z,81.00
2022-12-03T16:17:22.107Z,80.54
2022-12-03T16:19:48.708Z,80.80
2022-12-03T16:22:15.837Z,80.78
2022-12-03T16:24:42.473Z,80.72
2022-12-03T16:27:09.280Z,81.10
2022-12-03T16:29:35.817Z,81.69
2022-12-03T16:32:02.511Z,81.66
2022-12-03T16:34:29.091Z,81.62
2022-12-03T16:36:55.920Z,82.06
2022-12-03T16:39:22.623Z,81.63
2022-12-03T16:41:49.152Z,82.78
2022-12-03T16:44:15.937Z,82.80
2022-12-03T16:46:42.587Z,82.73
2022-12-03T16:49:09.428Z,82.73
2022-12-03T16:51:35.940Z,82.66
2022-12-03T16:54:02.589Z,82.62
2022-12-03T16:56:29.163Z,82.79
2022-12-03T16:58:56.747Z,83.07
2022-12-03T17:01:23.542Z,83.71
2022-12-03T17:03:50.593Z,84.05
2022-12-03T17:06:17.186Z,83.89
2022-12-03T17:08:49.100Z,84.03
2022-12-03T17:11:16.686Z,83.78
2022-12-03T17:13:43.212Z,83.82
2022-12-03T17:16:09.962Z,84.03
2022-12-03T17:18:36.658Z,84.69
2022-12-03T17:21:03.432Z,84.58
2022-12-03T17:23:29.983Z,84.98
2022-12-03T17:25:56.637Z,84.57
2022-12-03T17:28:23.322Z,84.32
2022-12-03T17:30:50.151Z,85.26
2022-12-03T17:33:16.853Z,84.94
2022-12-03T17:35:43.462Z,84.31
2022-12-03T17:38:10.135Z,84.75
2022-12-03T17:40:36.758Z,84.37
2022-12-03T17:43:03.311Z,84.57
2022-12-03T17:45:29.852Z,84.36
2022-12-03T17:47:56.497Z,84.63
2022-12-03T17:50:24.644Z,84.14
2022-12-03T17:52:51.433Z,84.87
2022-12-03T17:55:27.711Z,84.68
2022-12-03T17:57:57.946Z,84.41
2022-12-03T18:00:24.692Z,84.94
2022-12-03T18:02:51.839Z,84.53
2022-12-03T18:05:18.725Z,84.47
2022-12-03T18:07:45.378Z,84.86
2022-12-03T18:10:11.973Z,84.90
2022-12-03T18:12:38.668Z,84.53
2022-12-03T18:15:05.597Z,84.50
2022-12-03T18:17:32.186Z,84.65
2022-12-03T18:19:58.842Z,85.33
2022-12-03T18:22:25.765Z,84.79
2022-12-03T18:24:52.356Z,85.56
2022-12-03T18:27:21.092Z,85.19
2022-12-03T18:29:47.980Z,85.84
2022-12-03T18:32:28.252Z,85.49
2022-12-03T18:34:55.570Z,85.38
2022-12-03T18:37:26.025Z,85.87
2022-12-03T18:39:53.354Z,84.75
2022-12-03T18:42:23.336Z,86.01
2022-12-03T18:44:53.711Z,85.75
2022-12-03T18:47:22.604Z,86.22
2022-12-03T18:49:49.601Z,86.06
2022-12-03T18:52:19.225Z,85.85
2022-12-03T18:54:46.111Z,86.07
2022-12-03T18:57:12.794Z,86.19
2022-12-03T18:59:39.935Z,86.29
2022-12-03T19:02:07.896Z,86.52
2022-12-03T19:04:34.538Z,86.29
2022-12-03T19:07:02.209Z,86.54
2022-12-03T19:09:28.792Z,86.59
2022-12-03T19:11:55.617Z,86.70
2022-12-03T19:14:22.214Z,87.00
2022-12-03T19:16:48.770Z,86.45
2022-12-03T19:19:15.594Z,86.75
2022-12-03T19:21:42.312Z,86.90
2022-12-03T19:24:25.431Z,87.73
2022-12-03T19:26:52.293Z,86.95
2022-12-03T19:29:18.867Z,86.53
2022-12-03T19:31:45.664Z,86.80
2022-12-03T19:34:12.244Z,87.36
2022-12-03T19:36:38.797Z,87.03
2022-12-03T19:39:05.365Z,86.82
2022-12-03T19:41:31.920Z,87.34
2022-12-03T19:43:59.092Z,86.88
2022-12-03T19:46:27.706Z,88.09
2022-12-03T19:48:54.677Z,87.27
2022-12-03T19:51:34.171Z,88.13
2022-12-03T19:54:02.218Z,87.29
2022-12-03T19:56:28.918Z,87.80
2022-12-03T19:58:56.221Z,88.46
2022-12-03T20:01:25.819Z,88.77
2022-12-03T20:03:55.494Z,88.03
2022-12-03T20:06:24.439Z,88.21
2022-12-03T20:08:55.787Z,88.09
2022-12-03T20:11:25.314Z,88.71
2022-12-03T20:13:56.976Z,88.55
2022-12-03T20:16:24.913Z,88.59
2022-12-03T20:18:55.939Z,88.58
2022-12-03T20:21:23.817Z,88.42
2022-12-03T20:23:50.632Z,88.48
2022-12-03T20:26:19.696Z,88.71
2022-12-03T20:28:47.599Z,88.40
2022-12-03T20:31:19.250Z,87.95
2022-12-03T20:33:47.382Z,88.38
2022-12-03T20:36:16.550Z,87.98
2022-12-03T20:38:43.624Z,88.08
2022-12-03T20:41:12.458Z,88.46
2022-12-03T20:43:39.185Z,87.95
2022-12-03T20:46:09.622Z,88.69
2022-12-03T20:48:37.102Z,88.05
2022-12-03T20:51:06.113Z,88.45
2022-12-03T20:53:33.460Z,88.36
2022-12-03T20:56:01.482Z,87.97
2022-12-03T20:58:29.047Z,87.72
2022-12-03T21:00:56.217Z,88.51
2022-12-03T21:03:22.968Z,88.08
2022-12-03T21:05:49.781Z,87.24
2022-12-03T21:08:27.943Z,87.46
2022-12-03T21:11:07.902Z,87.99
2022-12-03T21:13:34.684Z,87.30
2022-12-03T21:16:07.556Z,87.46
2022-12-03T21:18:35.321Z,87.34
2022-12-03T21:21:03.176Z,87.71
2022-12-03T21:23:31.100Z,87.40
2022-12-03T21:26:05.125Z,87.92
2022-12-03T21:28:33.016Z,87.67
2022-12-03T21:31:01.888Z,87.27
2022-12-03T21:33:29.527Z,87.73
2022-12-03T21:35:56.456Z,87.67
2022-12-03T21:38:23.817Z,87.47
2022-12-03T21:40:50.425Z,87.23
2022-12-03T21:43:17.038Z,87.34
2022-12-03T21:45:44.198Z,87.35
2022-12-03T21:48:11.259Z,87.82
2022-12-03T21:50:37.840Z,88.03
2022-12-03T21:53:04.476Z,88.33
2022-12-03T21:55:31.365Z,87.96
2022-12-03T21:57:57.948Z,87.72
2022-12-03T22:00:24.649Z,88.54
2022-12-03T22:02:51.451Z,88.12
2022-12-03T22:05:18.131Z,88.33
2022-12-03T22:07:44.821Z,87.70
2022-12-03T22:10:12.477Z,88.52
2022-12-03T22:12:39.265Z,87.55
2022-12-03T22:15:06.548Z,87.40
2022-12-03T22:17:35.952Z,87.72
2022-12-03T22:20:04.024Z,87.72
2022-12-03T22:22:30.659Z,87.53
2022-12-03T22:24:57.677Z,87.95
2022-12-03T22:27:24.871Z,87.45
2022-12-03T22:29:51.666Z,87.45
2022-12-03T22:32:18.272Z,87.38
2022-12-03T22:34:44.789Z,87.13
2022-12-03T22:37:11.445Z,87.07
2022-12-03T22:39:38.002Z,87.99
2022-12-03T22:42:04.782Z,88.27
2022-12-03T22:44:31.381Z,87.78
2022-12-03T22:46:58.053Z,88.26
2022-12-03T22:49:25.851Z,87.08
2022-12-03T22:51:52.376Z,87.18
2022-12-03T22:54:23.719Z,87.70
2022-12-03T22:56:50.753Z,86.82
2022-12-03T22:59:17.367Z,86.98
2022-12-03T23:01:43.959Z,87.59
2022-12-03T23:04:11.347Z,87.41
2022-12-03T23:06:38.552Z,86.99
2022-12-03T23:09:06.607Z,86.56
2022-12-03T23:11:33.769Z,87.27
2022-12-03T23:14:00.336Z,85.94
2022-12-03T23:16:30.156Z,85.56
2022-12-03T23:19:01.352Z,85.18
2022-12-03T23:21:31.123Z,85.08
2022-12-03T23:24:02.742Z,85.18
2022-12-03T23:26:29.622Z,84.86
2022-12-03T23:28:56.588Z,85.08
2022-12-03T23:31:26.436Z,85.65
2022-12-03T23:33:53.985Z,85.19
2022-12-03T23:36:21.392Z,85.18
2022-12-03T23:38:48.179Z,85.03
2022-12-03T23:41:17.950Z,84.70
2022-12-03T23:43:44.674Z,84.86
2022-12-03T23:46:14.351Z,85.34
2022-12-03T23:48:42.011Z,85.20
2022-12-03T23:51:11.006Z,84.75
2022-12-03T23:53:38.627Z,84.82
2022-12-03T23:56:11.853Z,85.26
2022-12-03T23:58:38.853Z,84.84
